• Join FlightAware (Why Join?)
  • Login
  • US Flag 
10:00PM EDT


 

Airport Tracker/Info


-or-


 

Live Flight TrackerFlight Track Log ✈ FLG3729 ✈ 17-Jun-2013 ✈ KALB - KDTW

Flight Track Log - Related Links

Times and Time Zones

All times are in EDT time to prevent confusion due to time zone crossing. See the FLG3729 flight status page for this flight to view local times or setup timezone preferences in your user account.

Time Position Orientation Groundspeed Altitude Reporting Facility
EDT Latitude Longitude Course Direction KTS MPH feet Rate Location/Type
05:59AM 42.7736 -73.8064 283° West 171 197 1,100  Level Boston Center
06:00AM 42.8108 -73.8297 335° Northwest 188 216 2,500 1,860 Climbing Boston Center
06:01AM 42.8456 -73.8928 307° West 223 257 4,500 2,520 Climbing Boston Center
06:02AM 42.8233 -74.2628 281° West  Level FlightAware Approximate
06:02AM 42.8922 -73.9733 308° West 258 297 8,100  Level Boston Center
06:03AM 42.8414 -74.3815 283° West  Level FlightAware Approximate
06:03AM 42.9311 -74.0422 308° West 256 295 10,200  Level Boston Center
06:04AM 42.8611 -74.4997 283° West  Level FlightAware Approximate
06:04AM 42.9839 -74.1344 308° West 269 310 11,500  Level Boston Center
06:05AM 43.0306 -74.2211 306° West 306 352 12,900 1,500 Climbing Boston Center
06:06AM 43.0492 -74.3467 282° West 316 364 14,600 1,320 Climbing Boston Center
06:07AM 43.0558 -74.4575 275° West 322 371 15,600 1,020 Climbing Boston Center
06:08AM 43.0656 -74.6000 275° West 341 392 16,700 960 Climbing Boston Center
06:09AM 43.0717 -74.7197 274° West 352 405 17,600 960 Climbing Boston Center
06:10AM 43.0831 -74.8736 276° West 357 411 18,700 1,080 Climbing Boston Center
06:11AM 43.0925 -75.0133 275° West 369 425 19,800 1,020 Climbing Boston Center
06:12AM 43.0997 -75.1531 274° West 369 425 20,800 1,020 Climbing Boston Center
06:13AM 43.1086 -75.2956 275° West 369 425 21,900 1,020 Climbing Boston Center
06:14AM 43.1175 -75.4383 275° West 369 425 22,900 960 Climbing Boston Center
06:15AM 43.1264 -75.5697 275° West 369 425 23,900 540 Climbing Boston Center
06:16AM 43.1331 -75.7122 274° West 369 425 24,000  Climbing Boston Center
06:17AM 43.1433 -75.8581 276° West 375 432 24,000  Level Boston Center
06:19AM 43.1606 -76.1939 274° West 399 459 24,000  Level Cleveland Center
06:20AM 43.1494 -76.3428 264° West 404 465 24,000  Level Cleveland Center
06:21AM 43.1361 -76.4944 263° West 404 465 24,000  Level Cleveland Center
06:22AM 43.1247 -76.6461 264° West 410 472 24,000  Level Cleveland Center
06:23AM 43.1106 -76.7808 262° West 405 466 24,000  Level Cleveland Center
06:24AM 43.0967 -76.9294 263° West 405 466 24,000  Level Cleveland Center
06:25AM 43.0844 -77.0781 264° West 405 466 24,000  Level Cleveland Center
06:26AM 43.0703 -77.2294 263° West 405 466 24,000  Level Cleveland Center
06:27AM 43.0558 -77.3808 263° West 405 466 24,000  Level Cleveland Center
06:28AM 43.0411 -77.5294 262° West 405 466 24,000  Level Cleveland Center
06:29AM 43.0281 -77.6778 263° West 410 472 24,000  Level Cleveland Center
06:30AM 43.0131 -77.8233 262° West 405 466 24,000  Level Cleveland Center
06:31AM 42.9975 -77.9717 262° West 400 460 24,000  Level Cleveland Center
06:32AM 42.9800 -78.1172 261° West 400 460 24,000  Level Cleveland Center
06:33AM 42.9622 -78.2625 261° West 394 453 24,000  Level Cleveland Center
06:34AM 42.9461 -78.3964 261° West 383 441 24,000  Level Cleveland Center
06:35AM 42.9275 -78.5275 259° West 369 425 24,000  Level Cleveland Center
06:36AM 42.9131 -78.6611 262° West 364 419 24,000  Level Cleveland Center
06:37AM 42.8967 -78.7950 261° West 364 419 24,000  Level Cleveland Center
06:38AM 42.8756 -78.9314 258° West 364 419 24,000  Level Cleveland Center
06:39AM 42.8567 -79.0708 260° West 374 430 24,000  Level Cleveland Center
06:40AM 42.8378 -79.2128 260° West 374 430 24,000  Level Cleveland Center
06:41AM 42.8225 -79.3575 262° West 381 438 24,000  Level Cleveland Center
06:42AM 42.8033 -79.4994 260° West 381 438 24,000  Level Cleveland Center
06:43AM 42.7836 -79.6411 259° West 386 444 24,000  Level Cleveland Center
06:44AM 42.7639 -79.7800 259° West 391 450 24,000  Level Cleveland Center
06:45AM 42.7522 -79.9244 264° West 391 450 24,000  Level Cleveland Center
06:46AM 42.7403 -80.0631 263° West 391 450 24,000  Level Cleveland Center
06:47AM 42.7389 -80.2158 269° West 385 443 24,000  Level Cleveland Center
06:48AM 42.7308 -80.3542 266° West 385 443 24,000  Level Cleveland Center
06:49AM 42.7250 -80.5011 267° West 385 443 24,000 -180 Level Cleveland Center
06:50AM 42.7186 -80.6397 266° West 385 443 23,700 -540 Descending Cleveland Center
06:51AM 42.7122 -80.7894 267° West 375 432 23,000 -360 Descending Cleveland Center
06:52AM 42.7036 -80.9222 265° West 364 419 23,000  Level Cleveland Center
06:53AM 42.6886 -81.0550 261° West 364 419 23,000  Level Cleveland Center
06:54AM 42.6733 -81.1931 261° West 369 425 23,000  Level Cleveland Center
06:55AM 42.6558 -81.3228 260° West 369 425 23,000  Level Cleveland Center
06:56AM 42.6422 -81.4581 262° West 369 425 23,000  Level Cleveland Center
06:57AM 42.6267 -81.5961 261° West 369 425 23,000  Level Cleveland Center
06:58AM 42.6086 -81.7314 260° West 370 426 23,000 -600 Level Cleveland Center
06:59AM 42.5906 -81.8692 260° West 375 432 21,900 -1,560 Descending Cleveland Center
07:00AM 42.5767 -81.9958 262° West 364 419 19,900 -2,040 Descending Cleveland Center
07:01AM 42.5625 -82.1194 261° West 352 405 17,900 -2,100 Descending Cleveland Center
07:02AM 42.5508 -82.2150 261° West 333 383 16,200 -2,100 Descending Cleveland Center
07:03AM 42.5297 -82.3722 260° West 347 399 13,800 -1,860 Descending Cleveland Center
07:04AM 42.5131 -82.5014 260° West 330 380 12,100 -960 Descending Cleveland Center
07:05AM 42.4839 -82.6131 251° West 341 392 11,900 -840 Descending Cleveland Center
07:06AM 42.4489 -82.7106 244° Southwest 318 366 10,500 -1,680 Descending Cleveland Center
07:07AM 42.4325 -82.8056 257° West 285 328 8,600 -2,040 Descending Cleveland Center
07:08AM 42.4342 -82.8281 276° West 254 292 8,000 -1,620 Descending Cleveland Center
07:08AM 42.4264 -82.9011 262° West 263 303 7,000 -600 Descending Cleveland Center
07:09AM 42.4225 -82.9853 266° West 248 285 7,000 -600 Level Cleveland Center
07:10AM 42.4272 -83.0614 275° West 231 266 5,900 -1,020 Descending Cleveland Center
07:11AM 42.4339 -83.1378 277° West 226 260 5,000 -600 Descending Cleveland Center
07:12AM 42.3886 -83.2061 228° Southwest 176 203 4,700 -780 Descending Cleveland Center
07:14AM 42.3483 -83.2353 208° Southwest 142 163 3,300 -960 Descending Cleveland Center
07:15AM 42.3144 -83.2619 210° Southwest 150 173 2,800 -660 Descending Cleveland Center
07:16AM 42.2739 -83.2939 210° Southwest 150 173 2,000 -780 Descending Cleveland Center
07:17AM 42.2378 -83.3206 209° Southwest 151 174 1,200 -840 Descending Cleveland Center